createdAt,value
2017-10-21T00:00:41.305Z,0.00
2017-10-21T00:01:41.259Z,0.00
2017-10-21T00:02:41.206Z,0.00
2017-10-21T00:03:41.236Z,0.00
2017-10-21T00:04:41.115Z,0.00
2017-10-21T00:05:41.094Z,0.00
2017-10-21T00:06:41.025Z,0.00
2017-10-21T00:07:40.996Z,0.00
2017-10-21T00:08:40.952Z,0.00
2017-10-21T00:09:40.904Z,0.00
2017-10-21T00:10:40.870Z,0.00
2017-10-21T00:11:40.827Z,0.00
2017-10-21T00:12:40.780Z,0.00
2017-10-21T00:13:40.752Z,0.00
2017-10-21T00:14:40.737Z,0.00
2017-10-21T00:15:40.671Z,0.00
2017-10-21T00:16:40.605Z,0.00
2017-10-21T00:17:40.564Z,0.00
2017-10-21T00:18:40.565Z,0.00
2017-10-21T00:19:40.481Z,0.00
2017-10-21T00:20:40.494Z,0.00
2017-10-21T00:21:40.391Z,0.00
2017-10-21T00:22:40.346Z,0.00
2017-10-21T00:23:40.442Z,0.00
2017-10-21T00:24:40.271Z,0.00
2017-10-21T00:25:40.218Z,0.00
2017-10-21T00:26:40.210Z,0.00
2017-10-21T00:27:40.155Z,0.00
2017-10-21T00:28:40.092Z,0.00
2017-10-21T00:29:40.059Z,0.00
2017-10-21T00:30:40.037Z,0.00
2017-10-21T00:31:39.952Z,0.00
2017-10-21T00:32:39.957Z,0.00
2017-10-21T00:33:39.879Z,0.00
2017-10-21T00:34:39.836Z,0.00
2017-10-21T00:35:39.798Z,0.00
2017-10-21T00:36:39.751Z,0.00
2017-10-21T00:37:39.699Z,0.00
2017-10-21T00:38:39.661Z,0.00
2017-10-21T00:39:39.612Z,0.00
2017-10-21T00:40:39.576Z,0.00
2017-10-21T00:41:39.532Z,0.00
2017-10-21T00:42:39.492Z,0.00
2017-10-21T00:43:39.443Z,0.00
2017-10-21T00:44:39.403Z,0.00
2017-10-21T00:45:39.388Z,0.00
2017-10-21T00:46:39.332Z,0.00
2017-10-21T00:47:39.279Z,0.00
2017-10-21T00:48:39.256Z,0.00
2017-10-21T00:49:39.204Z,0.00
2017-10-21T00:50:39.143Z,0.00
2017-10-21T00:51:39.105Z,0.00
2017-10-21T00:52:39.049Z,0.00
2017-10-21T00:53:39.007Z,0.00
2017-10-21T00:54:38.968Z,0.00
2017-10-21T00:55:38.921Z,0.00
2017-10-21T00:56:38.908Z,0.00
2017-10-21T00:57:38.837Z,0.00
2017-10-21T00:58:38.805Z,0.00
2017-10-21T00:59:38.757Z,0.00
2017-10-21T01:00:38.730Z,0.00
2017-10-21T01:01:38.665Z,0.00
2017-10-21T01:02:38.633Z,0.00
2017-10-21T01:03:38.611Z,0.00
2017-10-21T01:04:38.539Z,0.00
2017-10-21T01:05:38.503Z,0.00
2017-10-21T01:06:38.466Z,0.00
2017-10-21T01:07:38.411Z,0.00
2017-10-21T01:08:38.379Z,0.00
2017-10-21T01:09:38.359Z,0.00
2017-10-21T01:10:38.286Z,0.00
2017-10-21T01:11:38.263Z,0.00
2017-10-21T01:12:38.238Z,0.00
2017-10-21T01:13:38.194Z,0.00
2017-10-21T01:14:38.148Z,0.00
2017-10-21T01:15:38.084Z,0.00
2017-10-21T01:16:38.055Z,0.00
2017-10-21T01:17:37.993Z,0.00
2017-10-21T01:18:37.974Z,0.00
2017-10-21T01:19:37.906Z,0.00
2017-10-21T01:20:37.909Z,0.00
2017-10-21T01:21:37.823Z,0.00
2017-10-21T01:22:37.778Z,0.00
2017-10-21T01:23:37.752Z,0.00
2017-10-21T01:24:37.683Z,0.00
2017-10-21T01:25:37.645Z,0.00
2017-10-21T01:26:37.665Z,0.00
2017-10-21T01:27:37.565Z,0.00
2017-10-21T01:28:37.526Z,0.00
2017-10-21T01:29:37.503Z,0.00
2017-10-21T01:30:37.454Z,0.00
2017-10-21T01:31:37.398Z,0.00
2017-10-21T01:32:37.355Z,0.00
2017-10-21T01:33:37.303Z,0.00
2017-10-21T01:34:37.270Z,0.00
2017-10-21T01:35:37.237Z,0.00
2017-10-21T01:36:37.188Z,0.00
2017-10-21T01:37:37.145Z,0.00
2017-10-21T01:38:37.117Z,0.00
2017-10-21T01:39:37.110Z,0.00
2017-10-21T01:40:37.018Z,0.00
2017-10-21T01:41:36.976Z,0.00
2017-10-21T01:42:36.931Z,0.00
2017-10-21T01:43:36.881Z,0.00
2017-10-21T01:44:36.841Z,0.00
2017-10-21T01:45:36.838Z,0.00
2017-10-21T01:46:36.841Z,0.00
2017-10-21T01:47:36.715Z,0.00
2017-10-21T01:48:36.678Z,0.00
2017-10-21T01:49:36.634Z,0.00
2017-10-21T01:50:36.590Z,0.00
2017-10-21T01:51:36.550Z,0.00
2017-10-21T01:52:36.504Z,0.00
2017-10-21T01:53:36.467Z,0.00
2017-10-21T01:54:36.428Z,0.00
2017-10-21T01:55:36.596Z,0.00
2017-10-21T01:56:37.233Z,0.00
2017-10-21T01:57:36.310Z,0.00
2017-10-21T01:58:36.283Z,0.00
2017-10-21T01:59:36.221Z,0.00
2017-10-21T02:00:36.175Z,0.00
2017-10-21T02:01:36.137Z,0.00
2017-10-21T02:02:36.087Z,0.00
2017-10-21T02:03:36.045Z,0.00
2017-10-21T02:04:35.996Z,0.00
2017-10-21T02:05:36.088Z,0.00
2017-10-21T02:06:35.938Z,0.00
2017-10-21T02:07:35.870Z,0.00
2017-10-21T02:08:35.832Z,0.00
2017-10-21T02:09:35.795Z,0.00
2017-10-21T02:10:35.746Z,0.00
2017-10-21T02:11:35.806Z,0.00
2017-10-21T02:12:35.667Z,0.00
2017-10-21T02:13:35.639Z,0.00
2017-10-21T02:14:35.583Z,0.00
2017-10-21T02:15:35.538Z,0.00
2017-10-21T02:16:35.504Z,0.00
2017-10-21T02:17:35.458Z,0.00
2017-10-21T02:18:35.422Z,0.00
2017-10-21T02:19:35.373Z,0.00
2017-10-21T02:20:35.346Z,0.00
2017-10-21T02:21:35.350Z,0.00
2017-10-21T02:22:35.255Z,0.00
2017-10-21T02:23:35.203Z,0.00
2017-10-21T02:24:35.200Z,0.00
2017-10-21T02:25:35.124Z,0.00
2017-10-21T02:26:35.102Z,0.00
2017-10-21T02:27:35.037Z,0.00
2017-10-21T02:28:34.998Z,0.00
2017-10-21T02:29:34.956Z,0.00
2017-10-21T02:30:34.913Z,0.00
2017-10-21T02:31:34.894Z,0.00
2017-10-21T02:32:34.842Z,0.00
2017-10-21T02:33:34.789Z,0.00
2017-10-21T02:34:34.764Z,0.00
2017-10-21T02:35:34.707Z,0.00
2017-10-21T02:36:34.666Z,0.00
2017-10-21T02:37:34.626Z,0.00
2017-10-21T02:38:34.656Z,0.00
2017-10-21T02:39:34.534Z,0.00
2017-10-21T02:40:34.501Z,0.00
2017-10-21T02:41:34.455Z,0.00
2017-10-21T02:42:34.430Z,0.00
2017-10-21T02:43:34.370Z,0.00
2017-10-21T02:44:34.344Z,0.00
2017-10-21T02:45:34.300Z,0.00
2017-10-21T02:46:34.250Z,0.00
2017-10-21T02:47:34.205Z,0.00
2017-10-21T02:48:34.184Z,0.00
2017-10-21T02:49:34.139Z,0.00
2017-10-21T02:50:34.102Z,0.00
2017-10-21T02:51:34.055Z,0.00
2017-10-21T02:52:34.004Z,0.00
2017-10-21T02:53:33.970Z,0.00
2017-10-21T02:54:33.915Z,0.00
2017-10-21T02:55:33.873Z,0.00
2017-10-21T02:56:33.839Z,0.00
2017-10-21T02:57:33.839Z,0.00
2017-10-21T02:58:33.757Z,0.00
2017-10-21T02:59:33.714Z,0.00
2017-10-21T03:00:33.657Z,0.00
2017-10-21T03:01:33.637Z,0.00
2017-10-21T03:02:33.585Z,0.00
2017-10-21T03:03:33.548Z,0.00
2017-10-21T03:04:33.512Z,0.00
2017-10-21T03:05:33.464Z,0.00
2017-10-21T03:06:33.422Z,0.00
2017-10-21T03:07:33.389Z,0.00
2017-10-21T03:08:33.349Z,0.00
2017-10-21T03:09:33.313Z,0.00
2017-10-21T03:10:33.243Z,0.00
2017-10-21T03:11:33.233Z,0.00
2017-10-21T03:12:33.161Z,0.00
2017-10-21T03:13:33.131Z,0.00
2017-10-21T03:14:33.075Z,0.00
2017-10-21T03:15:33.040Z,0.00
2017-10-21T03:16:33.003Z,0.00
2017-10-21T03:17:32.956Z,0.00
2017-10-21T03:18:32.932Z,0.00
2017-10-21T03:19:32.874Z,0.00
2017-10-21T03:20:32.838Z,0.00
2017-10-21T03:21:32.794Z,0.00
2017-10-21T03:22:32.763Z,0.00
2017-10-21T03:23:32.705Z,0.00
2017-10-21T03:24:32.668Z,0.00
2017-10-21T03:25:32.654Z,0.00
2017-10-21T03:26:32.583Z,0.00
2017-10-21T03:27:32.537Z,0.00
2017-10-21T03:28:32.525Z,0.00
2017-10-21T03:29:32.460Z,0.00
2017-10-21T03:30:32.482Z,0.00
2017-10-21T03:31:32.421Z,0.00
2017-10-21T03:32:32.356Z,0.00
2017-10-21T03:33:32.342Z,0.00
2017-10-21T03:34:32.261Z,0.00
2017-10-21T03:35:32.213Z,0.00
2017-10-21T03:36:32.167Z,0.00
2017-10-21T03:37:32.159Z,0.00
2017-10-21T03:38:32.084Z,0.00
2017-10-21T03:39:32.072Z,0.00
2017-10-21T03:40:31.998Z,0.00
2017-10-21T03:41:31.970Z,0.00
2017-10-21T03:42:31.931Z,0.00
2017-10-21T03:43:31.905Z,0.00
2017-10-21T03:44:31.842Z,0.00
2017-10-21T03:45:31.805Z,0.00
2017-10-21T03:46:31.762Z,0.00
2017-10-21T03:47:31.708Z,0.00
2017-10-21T03:48:31.695Z,0.00
2017-10-21T03:49:31.641Z,0.00
2017-10-21T03:50:31.593Z,0.00
2017-10-21T03:51:31.546Z,0.00
2017-10-21T03:52:31.500Z,0.00
2017-10-21T03:53:31.481Z,0.00
2017-10-21T03:54:31.427Z,0.00
2017-10-21T03:55:31.382Z,0.00
2017-10-21T03:56:31.347Z,0.00
2017-10-21T03:57:31.296Z,0.00
2017-10-21T03:58:31.257Z,0.00
2017-10-21T03:59:31.220Z,0.00
2017-10-21T04:00:31.229Z,0.00
2017-10-21T04:01:31.173Z,0.00
2017-10-21T04:02:31.130Z,0.00
2017-10-21T04:03:31.069Z,0.00
2017-10-21T04:04:31.034Z,0.00
2017-10-21T04:05:30.968Z,0.00
2017-10-21T04:06:30.927Z,0.00
2017-10-21T04:07:30.876Z,0.00
2017-10-21T04:08:30.837Z,0.00
2017-10-21T04:09:30.821Z,0.00
2017-10-21T04:10:30.757Z,0.00
2017-10-21T04:11:30.719Z,0.00
2017-10-21T04:12:30.673Z,0.00
2017-10-21T04:13:30.658Z,0.00
2017-10-21T04:14:30.596Z,0.00
2017-10-21T04:15:30.564Z,0.00
2017-10-21T04:16:30.527Z,0.00
2017-10-21T04:17:30.467Z,0.00
2017-10-21T04:18:30.423Z,0.00
2017-10-21T04:19:30.414Z,0.00
2017-10-21T04:20:30.342Z,0.00
2017-10-21T04:21:30.307Z,0.00
2017-10-21T04:22:30.263Z,0.00
2017-10-21T04:23:30.217Z,0.00
2017-10-21T04:24:30.182Z,0.00
2017-10-21T04:25:30.178Z,0.00
2017-10-21T04:26:30.094Z,0.00
2017-10-21T04:27:30.058Z,0.00
2017-10-21T04:28:30.013Z,0.00
2017-10-21T04:29:29.979Z,0.00
2017-10-21T04:30:29.927Z,0.00
2017-10-21T04:31:29.919Z,0.00
2017-10-21T04:32:29.866Z,0.00
2017-10-21T04:33:29.814Z,0.00
2017-10-21T04:34:29.770Z,0.00
2017-10-21T04:35:29.728Z,0.00
2017-10-21T04:36:29.723Z,0.00
2017-10-21T04:37:29.656Z,0.00
2017-10-21T04:38:29.625Z,0.00
2017-10-21T04:39:29.572Z,0.00
2017-10-21T04:40:29.580Z,0.00
2017-10-21T04:41:29.504Z,0.00
2017-10-21T04:42:29.435Z,0.00
2017-10-21T04:43:29.404Z,0.00
2017-10-21T04:44:29.349Z,0.00
2017-10-21T04:45:29.332Z,0.00
2017-10-21T04:46:29.291Z,0.00
2017-10-21T04:47:29.225Z,0.00
2017-10-21T04:48:29.192Z,0.00
2017-10-21T04:49:29.154Z,0.00
2017-10-21T04:50:29.107Z,0.00
2017-10-21T04:51:29.088Z,0.00
2017-10-21T04:52:29.026Z,0.00
2017-10-21T04:53:28.992Z,0.00
2017-10-21T04:54:29.765Z,0.00
2017-10-21T04:55:28.902Z,0.00
2017-10-21T04:56:28.869Z,0.00
2017-10-21T04:57:28.828Z,0.00
2017-10-21T04:58:28.789Z,0.00
2017-10-21T04:59:28.763Z,0.00
2017-10-21T05:00:28.727Z,0.00
2017-10-21T05:01:28.668Z,0.00
2017-10-21T05:02:28.642Z,0.00
2017-10-21T05:03:28.589Z,0.00
2017-10-21T05:04:28.541Z,0.00
2017-10-21T05:05:28.497Z,0.00
2017-10-21T05:06:28.467Z,0.00
2017-10-21T05:07:28.429Z,0.00
2017-10-21T05:08:28.433Z,0.00
2017-10-21T05:09:28.354Z,0.00
2017-10-21T05:10:28.324Z,0.00
2017-10-21T05:11:28.238Z,0.00
2017-10-21T05:12:28.211Z,0.00
2017-10-21T05:13:28.188Z,0.00
2017-10-21T05:14:28.154Z,0.00
2017-10-21T05:15:28.093Z,4.00
2017-10-21T05:16:28.047Z,4.00
2017-10-21T05:17:27.996Z,4.00
2017-10-21T05:18:27.968Z,4.00
2017-10-21T05:19:27.931Z,4.00
2017-10-21T05:20:27.922Z,8.00
2017-10-21T05:21:27.860Z,4.00
2017-10-21T05:22:27.826Z,8.00
2017-10-21T05:23:27.780Z,12.00
2017-10-21T05:24:27.712Z,12.00
2017-10-21T05:25:27.691Z,12.00
2017-10-21T05:26:27.649Z,16.00
2017-10-21T05:27:27.647Z,20.00
2017-10-21T05:28:27.545Z,28.00
2017-10-21T05:29:27.527Z,32.00
2017-10-21T05:30:27.475Z,36.00
2017-10-21T05:31:27.448Z,40.00
2017-10-21T05:32:27.399Z,48.00
2017-10-21T05:33:27.368Z,56.00
2017-10-21T05:34:27.307Z,68.00
2017-10-21T05:35:27.283Z,76.00
2017-10-21T05:36:27.223Z,92.00
2017-10-21T05:37:27.178Z,108.00
2017-10-21T05:38:27.163Z,120.00
2017-10-21T05:39:27.115Z,136.00
2017-10-21T05:40:27.056Z,160.00
2017-10-21T05:41:27.041Z,180.00
2017-10-21T05:42:27.058Z,208.00
2017-10-21T05:43:26.922Z,236.00
2017-10-21T05:44:26.928Z,264.00
2017-10-21T05:45:26.843Z,292.00
2017-10-21T05:46:26.811Z,320.00
2017-10-21T05:47:26.761Z,348.00
2017-10-21T05:48:26.740Z,368.00
2017-10-21T05:49:26.706Z,392.00
2017-10-21T05:50:26.659Z,420.00
2017-10-21T05:51:26.600Z,456.00
2017-10-21T05:52:26.566Z,488.00
2017-10-21T05:53:26.517Z,524.00
2017-10-21T05:54:26.486Z,556.00
2017-10-21T05:55:26.436Z,576.00
2017-10-21T05:56:26.386Z,600.00
2017-10-21T05:57:26.367Z,620.00
2017-10-21T05:58:26.315Z,656.00
2017-10-21T05:59:26.286Z,704.00
2017-10-21T06:00:26.233Z,756.00
2017-10-21T06:01:26.180Z,812.00
2017-10-21T06:02:26.154Z,876.00
2017-10-21T06:03:26.115Z,936.00
2017-10-21T06:04:26.069Z,1012.00
2017-10-21T06:05:26.764Z,1104.00
2017-10-21T06:06:25.996Z,1204.00
2017-10-21T06:07:25.973Z,1300.00
2017-10-21T06:08:25.910Z,1376.00
2017-10-21T06:09:25.891Z,1476.00
2017-10-21T06:10:25.841Z,1536.00
2017-10-21T06:11:25.777Z,1604.00
2017-10-21T06:12:25.737Z,1680.00
2017-10-21T06:13:25.714Z,1748.00
2017-10-21T06:14:25.673Z,1816.00
2017-10-21T06:15:25.623Z,1868.00
2017-10-21T06:16:25.577Z,1896.00
2017-10-21T06:17:25.537Z,1948.00
2017-10-21T06:18:25.503Z,1996.00
2017-10-21T06:19:25.469Z,2056.00
2017-10-21T06:20:25.444Z,2132.00
2017-10-21T06:21:25.386Z,2204.00
2017-10-21T06:23:25.300Z,2312.00
2017-10-21T06:24:25.264Z,2372.00
2017-10-21T06:25:25.223Z,2416.00
2017-10-21T06:26:25.180Z,2480.00
2017-10-21T06:27:25.131Z,2500.00
2017-10-21T06:28:25.092Z,2516.00
2017-10-21T06:29:25.053Z,2512.00
2017-10-21T06:30:25.017Z,2556.00
2017-10-21T06:31:25.032Z,2552.00
2017-10-21T06:32:24.962Z,2600.00
2017-10-21T06:33:24.906Z,2700.00
2017-10-21T06:34:24.903Z,2788.00
2017-10-21T06:35:24.884Z,2892.00
2017-10-21T06:36:24.766Z,2940.00
2017-10-21T06:37:24.747Z,2932.00
2017-10-21T06:38:24.700Z,2864.00
2017-10-21T06:39:24.676Z,2780.00
2017-10-21T06:40:24.603Z,2712.00
2017-10-21T06:41:24.595Z,2668.00
2017-10-21T06:42:24.537Z,2676.00
2017-10-21T06:43:24.529Z,2744.00
2017-10-21T06:44:24.470Z,2804.00
2017-10-21T06:45:24.453Z,2896.00
2017-10-21T06:46:24.379Z,3080.00
2017-10-21T06:47:24.335Z,3284.00
2017-10-21T06:48:24.416Z,3500.00
2017-10-21T06:49:24.257Z,3760.00
2017-10-21T06:50:24.247Z,4000.00
2017-10-21T06:51:24.204Z,4256.00
2017-10-21T06:52:24.120Z,4628.00
2017-10-21T06:53:24.119Z,4984.00
2017-10-21T06:54:24.049Z,5256.00
2017-10-21T06:55:24.003Z,5452.00
2017-10-21T06:56:24.017Z,5680.00
2017-10-21T06:57:23.983Z,5932.00
2017-10-21T06:58:23.898Z,6124.00
2017-10-21T06:59:23.853Z,6216.00
2017-10-21T07:00:23.802Z,6212.00
2017-10-21T07:01:23.756Z,6040.00
2017-10-21T07:02:23.769Z,5880.00
2017-10-21T07:03:24.281Z,5796.00
2017-10-21T07:04:23.648Z,5744.00
2017-10-21T07:05:23.690Z,5708.00
2017-10-21T07:06:23.568Z,5736.00
2017-10-21T07:07:23.518Z,5696.00
2017-10-21T07:08:23.489Z,5616.00
2017-10-21T07:09:23.471Z,5628.00
2017-10-21T07:10:24.292Z,5808.00
2017-10-21T07:11:23.361Z,6108.00
2017-10-21T07:12:23.324Z,6416.00
2017-10-21T07:13:23.293Z,6652.00
2017-10-21T07:14:23.261Z,6792.00
2017-10-21T07:15:23.215Z,7012.00
2017-10-21T07:16:23.165Z,7420.00
2017-10-21T07:17:23.129Z,7924.00
2017-10-21T07:18:23.100Z,8764.00
2017-10-21T07:19:23.086Z,9512.00
2017-10-21T07:20:23.037Z,9952.00
2017-10-21T07:21:22.980Z,10008.00
2017-10-21T07:22:22.930Z,9920.00
2017-10-21T07:23:22.890Z,9868.00
2017-10-21T07:24:22.858Z,9908.00
2017-10-21T07:25:22.815Z,9944.00
2017-10-21T07:26:22.840Z,10140.00
2017-10-21T07:27:22.735Z,10424.00
2017-10-21T07:28:22.702Z,10552.00
2017-10-21T07:29:22.663Z,10380.00
2017-10-21T07:30:22.610Z,9976.00
2017-10-21T07:31:22.584Z,9428.00
2017-10-21T07:32:22.540Z,9040.00
2017-10-21T07:33:22.493Z,8808.00
2017-10-21T07:34:22.458Z,8644.00
2017-10-21T07:35:22.445Z,8572.00
2017-10-21T07:36:22.382Z,8652.00
2017-10-21T07:37:22.347Z,8876.00
2017-10-21T07:38:22.321Z,9216.00
2017-10-21T07:39:22.255Z,9436.00
2017-10-21T07:40:22.249Z,9416.00
2017-10-21T07:41:22.189Z,9156.00
2017-10-21T07:42:22.176Z,8792.00
2017-10-21T07:43:22.122Z,8452.00
2017-10-21T07:44:22.061Z,8164.00
2017-10-21T07:45:22.035Z,7892.00
2017-10-21T07:46:21.996Z,7676.00
2017-10-21T07:47:21.957Z,7544.00
2017-10-21T07:48:21.932Z,7444.00
2017-10-21T07:49:21.887Z,7396.00
2017-10-21T07:50:21.854Z,7384.00
2017-10-21T07:51:21.858Z,7404.00
2017-10-21T07:52:21.755Z,7516.00
2017-10-21T07:53:21.755Z,7676.00
2017-10-21T07:54:21.687Z,7788.00
2017-10-21T07:55:21.663Z,7880.00
2017-10-21T07:56:21.615Z,7988.00
2017-10-21T07:57:21.573Z,8080.00
2017-10-21T07:58:21.555Z,8008.00
2017-10-21T07:59:21.484Z,7872.00
2017-10-21T08:00:21.462Z,7796.00
2017-10-21T08:01:21.424Z,7940.00
2017-10-21T08:02:21.378Z,8468.00
2017-10-21T08:03:21.342Z,9324.00
2017-10-21T08:04:21.313Z,10280.00
2017-10-21T08:05:21.275Z,11136.00
2017-10-21T08:06:21.222Z,11524.00
2017-10-21T08:07:21.203Z,11508.00
2017-10-21T08:08:21.137Z,11740.00
2017-10-21T08:09:21.109Z,12784.00
2017-10-21T08:10:21.080Z,13852.00
2017-10-21T08:11:21.041Z,14484.00
2017-10-21T08:12:21.055Z,14356.00
2017-10-21T08:13:20.982Z,14420.00
2017-10-21T08:14:22.275Z,14772.00
2017-10-21T08:15:20.876Z,15116.00
2017-10-21T08:16:20.876Z,15096.00
2017-10-21T08:17:20.802Z,15048.00
2017-10-21T08:18:20.762Z,15432.00
2017-10-21T08:19:20.740Z,15836.00
2017-10-21T08:20:20.695Z,16068.00
2017-10-21T08:21:20.685Z,15684.00
2017-10-21T08:22:20.609Z,15168.00
2017-10-21T08:23:20.577Z,14980.00
2017-10-21T08:24:20.562Z,15548.00
2017-10-21T08:25:20.503Z,16680.00
2017-10-21T08:26:20.456Z,17728.00
2017-10-21T08:27:20.430Z,17888.00
2017-10-21T08:28:20.384Z,17792.00
2017-10-21T08:29:20.349Z,17212.00
2017-10-21T08:30:20.336Z,16668.00
2017-10-21T08:31:20.277Z,16184.00
2017-10-21T08:32:20.248Z,15600.00
2017-10-21T08:33:20.200Z,14928.00
2017-10-21T08:34:20.176Z,14208.00
2017-10-21T08:35:20.196Z,13476.00
2017-10-21T08:36:20.093Z,12672.00
2017-10-21T08:37:20.055Z,12308.00
2017-10-21T08:38:20.015Z,12604.00
2017-10-21T08:39:19.986Z,13032.00
2017-10-21T08:40:19.938Z,12948.00
2017-10-21T08:41:19.904Z,12656.00
2017-10-21T08:42:19.866Z,12532.00
2017-10-21T08:43:19.819Z,12524.00
2017-10-21T08:44:19.785Z,12716.00
2017-10-21T08:45:19.743Z,13148.00
2017-10-21T08:46:19.720Z,14304.00
2017-10-21T08:47:19.685Z,15964.00
2017-10-21T08:48:19.643Z,17264.00
2017-10-21T08:49:19.605Z,18336.00
2017-10-21T08:50:19.576Z,19072.00
2017-10-21T08:51:19.533Z,19616.00
2017-10-21T08:52:19.494Z,19616.00
2017-10-21T08:53:19.446Z,19648.00
2017-10-21T08:54:19.419Z,20864.00
2017-10-21T08:55:19.398Z,22240.00
2017-10-21T08:56:19.364Z,23488.00
2017-10-21T08:57:19.314Z,23680.00
2017-10-21T08:58:19.295Z,22784.00
2017-10-21T08:59:19.242Z,21504.00
2017-10-21T09:00:19.212Z,20928.00
2017-10-21T09:01:19.178Z,30464.00
2017-10-21T09:02:19.158Z,25568.00
2017-10-21T09:03:19.108Z,19968.00
2017-10-21T09:04:19.080Z,38176.00
2017-10-21T09:05:19.028Z,50848.00
2017-10-21T09:06:18.984Z,46176.00
2017-10-21T09:07:18.947Z,44448.00
2017-10-21T09:08:18.909Z,57184.00
2017-10-21T09:09:18.890Z,28352.00
2017-10-21T09:10:18.836Z,24640.00
2017-10-21T09:11:18.807Z,39200.00
2017-10-21T09:12:18.774Z,31808.00
2017-10-21T09:13:18.730Z,25600.00
2017-10-21T09:14:18.720Z,38976.00
2017-10-21T09:15:18.694Z,51264.00
2017-10-21T09:16:18.657Z,44640.00
2017-10-21T09:17:18.609Z,50112.00
2017-10-21T09:18:18.590Z,49568.00
2017-10-21T09:19:18.541Z,52128.00
2017-10-21T09:20:18.526Z,56608.00
2017-10-21T09:21:18.517Z,51008.00
2017-10-21T09:22:18.476Z,56608.00
2017-10-21T09:23:18.464Z,57472.00
2017-10-21T09:24:18.405Z,55968.00
2017-10-21T09:25:18.360Z,51456.00
2017-10-21T09:26:18.352Z,56384.00
2017-10-21T09:27:18.315Z,55776.00
2017-10-21T09:28:18.292Z,56640.00
2017-10-21T09:29:18.290Z,61824.00
2017-10-21T09:30:18.239Z,55968.00
2017-10-21T09:31:18.211Z,47072.00
2017-10-21T09:32:18.194Z,50688.00
2017-10-21T09:33:18.162Z,51936.00
2017-10-21T09:34:18.134Z,55264.00
2017-10-21T09:35:18.104Z,58016.00
2017-10-21T09:36:18.073Z,55456.00
2017-10-21T09:37:18.063Z,58912.00
2017-10-21T09:38:18.045Z,57376.00
2017-10-21T09:39:18.030Z,53824.00
2017-10-21T09:40:18.011Z,61984.00
2017-10-21T09:41:17.969Z,56032.00
2017-10-21T09:42:17.958Z,62080.00
2017-10-21T09:43:17.926Z,56832.00
2017-10-21T09:44:17.919Z,67520.00
2017-10-21T09:45:22.356Z,65984.00
2017-10-21T09:46:17.980Z,56096.00
2017-10-21T09:47:17.953Z,53824.00
2017-10-21T09:48:17.803Z,36544.00
2017-10-21T09:49:17.763Z,61696.00
2017-10-21T09:50:17.784Z,48032.00
2017-10-21T09:51:17.720Z,65696.00
2017-10-21T09:52:17.710Z,58240.00
2017-10-21T09:53:17.667Z,52064.00
2017-10-21T09:54:17.687Z,44352.00
2017-10-21T09:55:17.627Z,34336.00
2017-10-21T09:56:18.404Z,40992.00
2017-10-21T09:57:17.640Z,32896.00
2017-10-21T09:58:17.577Z,37440.00
2017-10-21T09:59:17.579Z,33472.00
2017-10-21T10:00:17.555Z,35776.00
2017-10-21T10:01:17.514Z,38656.00
2017-10-21T10:02:17.471Z,40032.00
2017-10-21T10:03:17.539Z,44960.00
2017-10-21T10:04:17.434Z,39680.00
2017-10-21T10:05:20.426Z,71040.00
2017-10-21T10:06:17.360Z,60064.00
2017-10-21T10:07:17.331Z,66048.00
2017-10-21T10:08:17.328Z,69440.00
2017-10-21T10:09:17.297Z,73088.00
2017-10-21T10:10:17.267Z,73280.00
2017-10-21T10:11:17.223Z,65280.00
2017-10-21T10:12:17.215Z,53280.00
2017-10-21T10:13:17.181Z,55776.00
2017-10-21T10:14:17.163Z,61600.00
2017-10-21T10:15:17.121Z,67392.00
2017-10-21T10:16:17.104Z,74112.00
2017-10-21T10:17:17.110Z,81376.00
2017-10-21T10:18:17.080Z,58688.00
2017-10-21T10:19:17.021Z,69120.00
2017-10-21T10:20:17.008Z,75200.00
2017-10-21T10:21:16.984Z,72832.00
2017-10-21T10:22:16.973Z,71488.00
2017-10-21T10:23:16.938Z,68704.00
2017-10-21T10:24:17.126Z,66592.00
2017-10-21T10:25:16.900Z,43488.00
2017-10-21T10:26:18.403Z,69888.00
2017-10-21T10:27:16.856Z,33536.00
2017-10-21T10:28:16.881Z,36832.00
2017-10-21T10:29:16.809Z,83872.00
2017-10-21T10:30:16.806Z,55360.00
2017-10-21T10:31:16.796Z,84736.00
2017-10-21T10:32:16.748Z,87392.00
2017-10-21T10:33:16.766Z,85600.00
2017-10-21T10:34:16.695Z,76928.00
2017-10-21T10:35:16.718Z,80800.00
2017-10-21T10:36:16.664Z,72448.00
2017-10-21T10:37:16.644Z,73824.00
2017-10-21T10:38:16.636Z,76256.00
2017-10-21T10:39:16.598Z,73504.00
2017-10-21T10:40:16.562Z,70496.00
2017-10-21T10:41:16.601Z,68256.00
2017-10-21T10:42:16.551Z,66624.00
2017-10-21T10:43:16.511Z,67424.00
2017-10-21T10:44:16.507Z,71360.00
2017-10-21T10:45:16.461Z,67456.00
2017-10-21T10:46:16.439Z,72224.00
2017-10-21T10:47:16.426Z,74624.00
2017-10-21T10:48:16.400Z,35168.00
2017-10-21T10:49:16.406Z,52320.00
2017-10-21T10:50:16.360Z,27616.00
2017-10-21T10:51:16.351Z,77408.00
2017-10-21T10:52:16.320Z,68416.00
2017-10-21T10:53:16.296Z,74720.00
2017-10-21T10:54:16.280Z,73024.00
2017-10-21T10:55:16.313Z,61792.00
2017-10-21T10:56:16.234Z,39264.00
2017-10-21T10:57:16.252Z,53152.00
2017-10-21T10:58:16.205Z,70592.00
2017-10-21T10:59:16.159Z,95200.00
2017-10-21T11:00:16.140Z,92544.00
2017-10-21T11:01:16.105Z,60512.00
2017-10-21T11:02:16.086Z,65664.00
2017-10-21T11:03:16.072Z,40384.00
2017-10-21T11:04:16.067Z,75008.00
2017-10-21T11:05:16.053Z,33728.00
2017-10-21T11:06:16.012Z,76512.00
2017-10-21T11:07:15.985Z,45216.00
2017-10-21T11:08:16.040Z,71616.00
2017-10-21T11:09:15.932Z,89184.00
2017-10-21T11:10:15.926Z,96544.00
2017-10-21T11:11:15.889Z,33664.00
2017-10-21T11:12:15.877Z,34848.00
2017-10-21T11:13:15.855Z,29056.00
2017-10-21T11:14:15.827Z,28512.00
2017-10-21T11:15:15.826Z,29024.00
2017-10-21T11:16:15.765Z,28448.00
2017-10-21T11:17:15.805Z,27424.00
2017-10-21T11:18:15.793Z,26080.00
2017-10-21T11:19:15.699Z,25792.00
2017-10-21T11:20:15.699Z,25184.00
2017-10-21T11:21:16.607Z,24480.00
2017-10-21T11:22:16.972Z,22880.00
2017-10-21T11:23:16.530Z,19936.00
2017-10-21T11:24:16.485Z,18656.00
2017-10-21T11:25:16.586Z,18784.00
2017-10-21T11:26:16.508Z,16652.00
2017-10-21T11:27:15.491Z,14644.00
2017-10-21T11:28:15.449Z,14660.00
2017-10-21T11:29:15.434Z,15428.00
2017-10-21T11:30:15.409Z,16388.00
2017-10-21T11:31:15.365Z,16588.00
2017-10-21T11:32:15.343Z,16692.00
2017-10-21T11:33:15.313Z,16360.00
2017-10-21T11:34:15.284Z,16144.00
2017-10-21T11:35:15.259Z,17388.00
2017-10-21T11:36:15.233Z,19264.00
2017-10-21T11:37:15.199Z,22112.00
2017-10-21T11:38:15.158Z,23680.00
2017-10-21T11:39:15.172Z,26272.00
2017-10-21T11:40:16.560Z,28320.00
2017-10-21T11:41:15.195Z,28864.00
2017-10-21T11:42:15.101Z,29760.00
2017-10-21T11:43:15.030Z,31072.00
2017-10-21T11:44:16.579Z,33024.00
2017-10-21T11:45:14.957Z,56640.00
2017-10-21T11:46:14.920Z,41376.00
2017-10-21T11:47:14.909Z,34176.00
2017-10-21T11:48:14.882Z,36928.00
2017-10-21T11:49:14.920Z,34304.00
2017-10-21T11:50:14.882Z,32192.00
2017-10-21T11:51:14.765Z,36256.00
2017-10-21T11:52:14.725Z,33600.00
2017-10-21T11:53:14.711Z,31424.00
2017-10-21T11:54:14.728Z,37056.00
2017-10-21T11:55:14.655Z,30400.00
2017-10-21T11:56:14.617Z,27104.00
2017-10-21T11:57:14.603Z,25792.00
2017-10-21T11:58:14.560Z,26176.00
2017-10-21T11:59:14.533Z,26880.00
2017-10-21T12:00:14.495Z,28384.00
2017-10-21T12:01:14.450Z,44992.00
2017-10-21T12:02:14.412Z,28864.00
2017-10-21T12:03:14.386Z,29472.00
2017-10-21T12:04:14.377Z,29568.00
2017-10-21T12:05:14.325Z,29920.00
2017-10-21T12:06:14.294Z,29312.00
2017-10-21T12:07:14.290Z,28384.00
2017-10-21T12:08:14.242Z,28800.00
2017-10-21T12:09:14.276Z,30720.00
2017-10-21T12:10:14.179Z,31904.00
2017-10-21T12:11:14.175Z,32384.00
2017-10-21T12:12:14.124Z,32768.00
2017-10-21T12:13:14.090Z,34976.00
2017-10-21T12:14:14.058Z,36128.00
2017-10-21T12:15:14.018Z,30912.00
2017-10-21T12:16:14.014Z,28640.00
2017-10-21T12:17:13.979Z,28448.00
2017-10-21T12:18:13.995Z,25632.00
2017-10-21T12:19:13.903Z,24416.00
2017-10-21T12:20:13.871Z,24224.00
2017-10-21T12:21:13.837Z,22528.00
2017-10-21T12:22:13.830Z,21280.00
2017-10-21T12:23:13.855Z,21280.00
2017-10-21T12:24:13.757Z,21504.00
2017-10-21T12:25:13.745Z,20544.00
2017-10-21T12:26:13.684Z,19232.00
2017-10-21T12:27:13.655Z,18240.00
2017-10-21T12:28:13.651Z,15656.00
2017-10-21T12:29:13.608Z,15448.00